createdAt,value
2022-08-05T00:00:46.729Z,87.70
2022-08-05T00:03:16.884Z,87.90
2022-08-05T00:06:06.562Z,88.60
2022-08-05T00:08:35.132Z,89.10
2022-08-05T00:11:03.350Z,89.40
2022-08-05T00:13:39.538Z,89.80
2022-08-05T00:16:11.081Z,90.30
2022-08-05T00:18:42.192Z,90.60
2022-08-05T00:21:09.046Z,90.80
2022-08-05T00:23:45.658Z,90.90
2022-08-05T00:26:13.328Z,91.50
2022-08-05T00:28:43.296Z,91.30
2022-08-05T00:31:12.726Z,91.70
2022-08-05T00:34:53.412Z,91.90
2022-08-05T00:37:11.419Z,91.80
2022-08-05T00:39:13.747Z,92.00
2022-08-05T00:41:51.528Z,92.20
2022-08-05T00:44:21.639Z,92.60
2022-08-05T00:46:54.298Z,92.70
2022-08-05T00:49:32.549Z,92.80
2022-08-05T00:52:00.095Z,92.90
2022-08-05T00:54:28.107Z,92.80
2022-08-05T00:56:57.052Z,92.80
2022-08-05T00:59:23.902Z,92.80
2022-08-05T01:01:51.178Z,93.30
2022-08-05T01:04:20.077Z,93.90
2022-08-05T01:06:53.330Z,94.30
2022-08-05T01:09:21.941Z,94.40
2022-08-05T01:11:49.939Z,94.60
2022-08-05T01:14:28.497Z,94.60
2022-08-05T01:17:09.191Z,94.70
2022-08-05T01:19:56.100Z,95.00
2022-08-05T01:22:43.255Z,95.20
2022-08-05T01:25:13.817Z,95.30
2022-08-05T01:27:55.136Z,95.70
2022-08-05T01:30:34.917Z,96.00
2022-08-05T01:33:02.976Z,96.30
2022-08-05T01:35:51.966Z,96.40
2022-08-05T01:38:27.496Z,96.60
2022-08-05T01:40:58.929Z,96.40
2022-08-05T01:43:26.010Z,97.20
2022-08-05T01:45:56.157Z,97.50
2022-08-05T01:48:24.253Z,97.50
2022-08-05T01:50:51.448Z,97.90
2022-08-05T01:53:54.649Z,98.20
2022-08-05T01:56:06.115Z,98.60
2022-08-05T01:58:44.591Z,99.00
2022-08-05T02:01:12.701Z,99.20
2022-08-05T02:03:40.772Z,99.40
2022-08-05T02:06:37.105Z,99.40
2022-08-05T02:08:58.193Z,99.60
2022-08-05T02:11:33.598Z,99.40
2022-08-05T02:14:05.807Z,99.70
2022-08-05T02:16:37.110Z,99.70
2022-08-05T02:19:08.298Z,99.90
2022-08-05T02:21:40.316Z,99.90
2022-08-05T02:24:11.151Z,99.90
2022-08-05T02:26:39.345Z,99.90
2022-08-05T02:29:26.112Z,99.90
2022-08-05T02:32:08.630Z,99.90
2022-08-05T02:34:35.625Z,99.90
2022-08-05T02:37:04.495Z,99.90
2022-08-05T02:39:34.684Z,99.90
2022-08-05T02:42:02.081Z,99.90
2022-08-05T02:44:29.020Z,99.90
2022-08-05T02:47:00.489Z,99.90
2022-08-05T02:49:36.013Z,99.90
2022-08-05T02:52:04.811Z,99.90
2022-08-05T02:54:36.552Z,99.90
2022-08-05T02:57:10.130Z,99.90
2022-08-05T02:59:54.333Z,99.90
2022-08-05T03:02:23.570Z,99.90
2022-08-05T03:04:54.477Z,99.90
2022-08-05T03:07:48.464Z,99.90
2022-08-05T03:10:08.654Z,99.90
2022-08-05T03:12:39.093Z,99.90
2022-08-05T03:15:06.987Z,99.90
2022-08-05T03:17:41.687Z,99.90
2022-08-05T03:20:09.229Z,99.90
2022-08-05T03:22:37.053Z,99.90
2022-08-05T03:25:31.586Z,99.90
2022-08-05T03:28:00.153Z,99.90
2022-08-05T03:30:28.681Z,99.90
2022-08-05T03:33:05.633Z,99.90
2022-08-05T03:35:41.173Z,99.90
2022-08-05T03:38:12.416Z,99.90
2022-08-05T03:40:45.391Z,99.90
2022-08-05T03:43:59.310Z,99.90
2022-08-05T03:46:01.549Z,99.90
2022-08-05T03:48:29.196Z,99.90
2022-08-05T03:52:39.019Z,99.90
2022-08-05T03:55:52.656Z,99.90
2022-08-05T03:56:38.691Z,99.90
2022-08-05T03:59:09.400Z,99.90
2022-08-05T04:01:37.009Z,99.90
2022-08-05T04:04:09.943Z,99.90
2022-08-05T04:06:37.693Z,99.90
2022-08-05T04:09:05.989Z,99.90
2022-08-05T04:11:50.745Z,99.90
2022-08-05T04:14:19.533Z,99.90
2022-08-05T04:16:57.581Z,99.90
2022-08-05T04:19:24.850Z,99.90
2022-08-05T04:22:09.046Z,99.90
2022-08-05T04:24:44.083Z,99.90
2022-08-05T04:27:12.184Z,99.90
2022-08-05T04:29:39.448Z,99.90
2022-08-05T04:32:06.684Z,99.90
2022-08-05T04:34:36.608Z,99.90
2022-08-05T04:37:09.536Z,99.90
2022-08-05T04:39:36.291Z,99.90
2022-08-05T04:42:03.759Z,99.90
2022-08-05T04:44:30.835Z,99.90
2022-08-05T04:47:09.688Z,99.90
2022-08-05T04:50:01.402Z,99.90
2022-08-05T04:52:27.704Z,99.90
2022-08-05T04:54:57.216Z,99.90
2022-08-05T04:57:28.606Z,99.90
2022-08-05T04:59:56.597Z,99.90
2022-08-05T05:02:37.739Z,99.90
2022-08-05T05:05:26.221Z,99.90
2022-08-05T05:07:56.624Z,99.90
2022-08-05T05:10:28.808Z,99.90
2022-08-05T05:12:56.453Z,99.90
2022-08-05T05:15:57.268Z,99.90
2022-08-05T05:18:15.409Z,99.90
2022-08-05T05:20:55.498Z,99.90
2022-08-05T05:23:22.251Z,99.90
2022-08-05T05:25:49.029Z,99.90
2022-08-05T05:28:15.743Z,99.90
2022-08-05T05:30:42.559Z,99.90
2022-08-05T05:33:16.505Z,99.90
2022-08-05T05:35:47.925Z,99.90
2022-08-05T05:38:15.166Z,99.90
2022-08-05T05:40:53.731Z,99.90
2022-08-05T05:43:56.449Z,99.90
2022-08-05T05:46:17.416Z,99.90
2022-08-05T05:48:46.077Z,99.90
2022-08-05T05:51:20.181Z,99.70
2022-08-05T05:53:57.843Z,99.60
2022-08-05T05:56:31.632Z,99.10
2022-08-05T05:59:03.252Z,98.40
2022-08-05T06:01:37.447Z,97.80
2022-08-05T06:04:05.474Z,97.70
2022-08-05T06:06:34.812Z,97.50
2022-08-05T06:09:03.997Z,97.30
2022-08-05T06:11:31.395Z,97.00
2022-08-05T06:13:58.197Z,96.90
2022-08-05T06:16:36.733Z,97.00
2022-08-05T06:19:05.788Z,96.90
2022-08-05T06:21:35.917Z,96.70
2022-08-05T06:24:04.597Z,96.20
2022-08-05T06:26:33.937Z,96.10
2022-08-05T06:29:03.704Z,95.90
2022-08-05T06:31:33.791Z,95.60
2022-08-05T06:34:07.373Z,95.20
2022-08-05T06:36:53.589Z,95.10
2022-08-05T06:39:22.158Z,94.70
2022-08-05T06:41:53.732Z,94.40
2022-08-05T06:44:22.143Z,94.50
2022-08-05T06:46:50.852Z,93.80
2022-08-05T06:49:18.970Z,93.60
2022-08-05T06:51:48.373Z,93.20
2022-08-05T06:54:18.184Z,93.10
2022-08-05T06:56:55.092Z,92.80
2022-08-05T06:59:38.798Z,92.00
2022-08-05T07:02:08.998Z,91.60
2022-08-05T07:04:35.856Z,91.50
2022-08-05T07:07:03.486Z,91.70
2022-08-05T07:09:40.563Z,91.10
2022-08-05T07:12:30.003Z,90.80
2022-08-05T07:15:34.225Z,90.70
2022-08-05T07:18:09.132Z,89.40
2022-08-05T07:20:38.952Z,87.10
2022-08-05T07:23:06.555Z,87.60
2022-08-05T07:25:56.338Z,86.90
2022-08-05T07:28:20.212Z,86.00
2022-08-05T07:30:50.318Z,85.30
2022-08-05T07:33:36.949Z,84.90
2022-08-05T07:36:20.796Z,83.30
2022-08-05T07:38:48.981Z,83.00
2022-08-05T07:42:08.761Z,82.20
2022-08-05T07:44:04.895Z,83.10
2022-08-05T07:46:31.758Z,81.60
2022-08-05T07:49:05.540Z,80.90
2022-08-05T07:51:48.893Z,78.90
2022-08-05T07:54:23.141Z,78.60
2022-08-05T07:57:14.690Z,79.90
2022-08-05T07:59:41.119Z,78.60
2022-08-05T08:02:10.648Z,78.10
2022-08-05T08:04:47.647Z,76.50
2022-08-05T08:07:15.464Z,76.10
2022-08-05T08:09:42.585Z,74.90
2022-08-05T08:12:19.953Z,75.10
2022-08-05T08:14:56.250Z,73.30
2022-08-05T08:17:23.581Z,71.50
2022-08-05T08:20:22.989Z,71.30
2022-08-05T08:22:37.298Z,72.80
2022-08-05T08:25:16.358Z,71.80
2022-08-05T08:27:47.601Z,70.90
2022-08-05T08:30:28.493Z,69.50
2022-08-05T08:33:04.392Z,68.00
2022-08-05T08:35:41.021Z,67.50
2022-08-05T08:38:16.251Z,67.70
2022-08-05T08:40:47.781Z,66.80
2022-08-05T08:44:57.894Z,66.50
2022-08-05T08:46:05.874Z,67.60
2022-08-05T08:49:03.315Z,64.80
2022-08-05T08:52:02.873Z,65.20
2022-08-05T08:54:13.770Z,63.00
2022-08-05T08:56:47.932Z,62.30
2022-08-05T08:59:19.576Z,61.90
2022-08-05T09:01:57.295Z,61.50
2022-08-05T09:04:30.688Z,61.80
2022-08-05T09:06:57.843Z,61.40
2022-08-05T09:09:26.061Z,60.80
2022-08-05T09:12:13.570Z,60.90
2022-08-05T09:14:57.983Z,60.30
2022-08-05T09:17:41.200Z,59.20
2022-08-05T09:20:09.751Z,60.20
2022-08-05T09:22:54.922Z,59.80
2022-08-05T09:26:01.913Z,59.40
2022-08-05T09:28:21.044Z,59.10
2022-08-05T09:30:57.764Z,58.80
2022-08-05T09:33:24.678Z,57.80
2022-08-05T09:36:06.159Z,58.60
2022-08-05T09:38:55.626Z,57.90
2022-08-05T09:41:23.943Z,57.70
2022-08-05T09:43:52.639Z,57.40
2022-08-05T09:46:27.923Z,56.90
2022-08-05T09:49:07.773Z,56.50
2022-08-05T09:51:42.608Z,56.60
2022-08-05T09:54:11.510Z,57.30
2022-08-05T09:56:38.598Z,56.10
2022-08-05T09:59:06.423Z,56.00
2022-08-05T10:01:33.799Z,55.60
2022-08-05T10:04:03.557Z,54.60
2022-08-05T10:06:31.123Z,54.20
2022-08-05T10:09:27.852Z,53.80
2022-08-05T10:11:55.416Z,53.70
2022-08-05T10:14:30.233Z,53.60
2022-08-05T10:17:37.188Z,52.50
2022-08-05T10:20:03.040Z,51.90
2022-08-05T10:22:35.137Z,52.60
2022-08-05T10:25:05.034Z,52.30
2022-08-05T10:28:12.727Z,51.90
2022-08-05T10:31:20.880Z,51.70
2022-08-05T10:33:09.555Z,52.00
2022-08-05T10:35:43.865Z,52.40
2022-08-05T10:38:11.787Z,53.20
2022-08-05T10:40:45.064Z,53.00
2022-08-05T10:43:13.767Z,50.90
2022-08-05T10:45:42.003Z,50.90
2022-08-05T10:48:30.692Z,51.00
2022-08-05T10:51:00.269Z,50.20
2022-08-05T10:53:42.670Z,50.30
2022-08-05T10:56:21.575Z,50.30
2022-08-05T10:58:55.710Z,49.70
2022-08-05T11:01:54.059Z,48.80
2022-08-05T11:04:22.663Z,48.50
2022-08-05T11:07:04.508Z,48.30
2022-08-05T11:09:46.648Z,47.70
2022-08-05T11:12:32.257Z,46.80
2022-08-05T11:15:20.370Z,46.80
2022-08-05T11:17:59.161Z,45.80
2022-08-05T11:20:44.051Z,45.70
2022-08-05T11:24:02.221Z,46.00
2022-08-05T11:26:28.796Z,46.20
2022-08-05T11:29:06.632Z,46.60
2022-08-05T11:31:58.205Z,46.90
2022-08-05T11:34:47.598Z,46.30
2022-08-05T11:38:37.294Z,45.30
2022-08-05T11:40:43.226Z,44.30
2022-08-05T11:43:19.991Z,43.90
2022-08-05T11:46:27.275Z,44.20
2022-08-05T11:48:53.892Z,43.80
2022-08-05T11:51:44.845Z,43.90
2022-08-05T11:53:48.879Z,44.40
2022-08-05T11:56:15.611Z,43.70
2022-08-05T11:58:47.874Z,43.30
2022-08-05T12:03:57.056Z,41.30
2022-08-05T12:06:24.604Z,42.10
2022-08-05T12:08:53.484Z,42.10
2022-08-05T12:11:20.708Z,41.00
2022-08-05T12:13:58.496Z,41.20
2022-08-05T12:16:27.296Z,40.50
2022-08-05T12:18:55.604Z,40.30
2022-08-05T12:21:26.786Z,40.10
2022-08-05T12:24:00.175Z,40.40
2022-08-05T12:26:34.253Z,41.50
2022-08-05T12:29:01.499Z,41.10
2022-08-05T12:31:33.718Z,40.50
2022-08-05T12:34:20.320Z,40.20
2022-08-05T12:36:47.971Z,40.00
2022-08-05T12:39:14.816Z,40.10
2022-08-05T12:41:43.643Z,39.80
2022-08-05T12:44:11.599Z,41.60
2022-08-05T12:46:45.492Z,41.30
2022-08-05T12:49:14.528Z,40.10
2022-08-05T12:52:12.541Z,38.90
2022-08-05T12:54:38.411Z,38.60
2022-08-05T12:57:09.607Z,38.50
2022-08-05T13:01:56.639Z,37.70
2022-08-05T13:02:35.273Z,37.30
2022-08-05T13:05:05.511Z,38.20
2022-08-05T13:07:57.205Z,38.10
2022-08-05T13:10:20.481Z,38.40
2022-08-05T13:12:57.773Z,37.60
2022-08-05T13:15:36.030Z,37.10
2022-08-05T13:18:20.624Z,37.50
2022-08-05T13:20:48.968Z,37.60
2022-08-05T13:23:16.315Z,37.40
2022-08-05T13:25:52.503Z,37.20
2022-08-05T13:28:25.944Z,36.80
2022-08-05T13:30:53.127Z,36.30
2022-08-05T13:34:23.989Z,36.80
2022-08-05T13:36:09.463Z,36.70
2022-08-05T13:38:42.172Z,36.00
2022-08-05T13:41:10.776Z,35.90
2022-08-05T13:43:44.886Z,36.00
2022-08-05T13:46:51.027Z,35.80
2022-08-05T13:49:10.190Z,35.80
2022-08-05T13:51:41.123Z,35.20
2022-08-05T13:54:12.951Z,36.20
2022-08-05T13:56:44.947Z,35.80
2022-08-05T13:59:24.285Z,35.80
2022-08-05T14:01:58.360Z,35.40
2022-08-05T14:04:54.370Z,36.20
2022-08-05T14:07:56.240Z,35.80
2022-08-05T14:10:18.708Z,35.60
2022-08-05T14:12:48.752Z,35.60
2022-08-05T14:16:04.602Z,35.20
2022-08-05T14:18:02.668Z,35.20
2022-08-05T14:20:30.863Z,35.10
2022-08-05T14:23:00.761Z,35.60
2022-08-05T14:25:30.148Z,35.90
2022-08-05T14:27:58.538Z,36.20
2022-08-05T14:30:26.595Z,36.70
2022-08-05T14:32:54.476Z,36.90
2022-08-05T14:35:23.525Z,37.20
2022-08-05T14:38:04.488Z,36.80
2022-08-05T14:40:31.254Z,36.90
2022-08-05T14:42:58.000Z,36.90
2022-08-05T14:45:25.034Z,36.70
2022-08-05T14:48:02.840Z,36.70
2022-08-05T14:50:31.081Z,37.40
2022-08-05T14:52:59.716Z,37.60
2022-08-05T14:55:38.730Z,38.60
2022-08-05T14:58:10.924Z,39.80
2022-08-05T15:00:38.232Z,39.70
2022-08-05T15:03:09.630Z,40.50
2022-08-05T15:06:07.386Z,40.20
2022-08-05T15:08:58.444Z,41.10
2022-08-05T15:11:09.980Z,41.40
2022-08-05T15:13:46.621Z,41.30
2022-08-05T15:16:17.195Z,40.70
2022-08-05T15:18:43.968Z,40.80
2022-08-05T15:21:14.030Z,41.50
2022-08-05T15:23:40.795Z,41.50
2022-08-05T15:26:07.499Z,41.70
2022-08-05T15:28:34.311Z,42.30
2022-08-05T15:31:03.608Z,42.20
2022-08-05T15:34:04.258Z,42.30
2022-08-05T15:36:24.460Z,42.50
2022-08-05T15:41:00.568Z,42.50
2022-08-05T15:41:57.506Z,42.00
2022-08-05T15:44:26.548Z,42.10
2022-08-05T15:46:55.822Z,42.60
2022-08-05T15:49:40.950Z,42.90
2022-08-05T15:52:16.771Z,43.30
2022-08-05T15:54:56.088Z,43.10
2022-08-05T15:57:23.630Z,43.50
2022-08-05T15:59:54.030Z,43.10
2022-08-05T16:02:25.620Z,43.30
2022-08-05T16:04:52.921Z,43.30
2022-08-05T16:07:21.425Z,43.90
2022-08-05T16:09:49.965Z,43.40
2022-08-05T16:12:16.890Z,43.60
2022-08-05T16:14:46.678Z,43.60
2022-08-05T16:17:13.426Z,43.50
2022-08-05T16:20:05.323Z,43.30
2022-08-05T16:22:27.740Z,43.20
2022-08-05T16:25:00.902Z,43.50
2022-08-05T16:27:47.404Z,43.30
2022-08-05T16:30:25.712Z,43.20
2022-08-05T16:32:53.391Z,43.10
2022-08-05T16:35:20.155Z,42.80
2022-08-05T16:38:15.643Z,42.50
2022-08-05T16:40:42.152Z,42.10
2022-08-05T16:43:16.526Z,42.40
2022-08-05T16:46:06.068Z,42.60
2022-08-05T16:48:33.474Z,42.70
2022-08-05T16:51:00.848Z,43.00
2022-08-05T16:53:32.365Z,43.10
2022-08-05T16:56:14.308Z,42.90
2022-08-05T16:58:41.076Z,42.80
2022-08-05T17:01:10.437Z,43.70
2022-08-05T17:03:37.566Z,43.90
2022-08-05T17:06:05.903Z,43.80
2022-08-05T17:08:51.924Z,43.80
2022-08-05T17:11:20.512Z,43.90
2022-08-05T17:13:50.743Z,43.90
2022-08-05T17:16:32.883Z,44.10
2022-08-05T17:19:00.697Z,43.30
2022-08-05T17:21:35.441Z,42.70
2022-08-05T17:24:07.300Z,42.20
2022-08-05T17:26:47.483Z,41.70
2022-08-05T17:29:14.632Z,42.00
2022-08-05T17:31:58.594Z,42.00
2022-08-05T17:34:29.697Z,42.30
2022-08-05T17:36:59.037Z,43.10
2022-08-05T17:39:33.273Z,44.20
2022-08-05T17:42:17.295Z,44.80
2022-08-05T17:44:50.403Z,45.20
2022-08-05T17:47:22.226Z,45.80
2022-08-05T17:50:03.586Z,45.60
2022-08-05T17:52:34.008Z,46.40
2022-08-05T17:55:00.950Z,46.30
2022-08-05T17:57:29.899Z,46.70
2022-08-05T18:00:04.773Z,46.60
2022-08-05T18:02:35.708Z,46.80
2022-08-05T18:05:06.292Z,47.40
2022-08-05T18:07:41.147Z,47.00
2022-08-05T18:10:10.508Z,47.20
2022-08-05T18:12:37.640Z,47.30
2022-08-05T18:15:04.743Z,47.60
2022-08-05T18:17:59.194Z,48.10
2022-08-05T18:20:29.003Z,48.60
2022-08-05T18:22:57.968Z,48.60
2022-08-05T18:25:32.707Z,48.40
2022-08-05T18:28:04.683Z,48.90
2022-08-05T18:30:33.252Z,49.60
2022-08-05T18:33:00.994Z,50.20
2022-08-05T18:36:00.043Z,50.50
2022-08-05T18:38:18.942Z,51.10
2022-08-05T18:41:54.956Z,51.70
2022-08-05T18:43:38.306Z,51.50
2022-08-05T18:46:10.215Z,51.70
2022-08-05T18:48:41.676Z,52.00
2022-08-05T18:52:02.758Z,52.50
2022-08-05T18:54:14.305Z,53.00
2022-08-05T18:56:41.031Z,53.80
2022-08-05T18:59:41.871Z,54.40
2022-08-05T19:01:58.112Z,55.40
2022-08-05T19:04:25.798Z,55.90
2022-08-05T19:06:53.563Z,56.90
2022-08-05T19:09:21.099Z,57.30
2022-08-05T19:12:00.440Z,57.40
2022-08-05T19:14:59.172Z,58.00
2022-08-05T19:17:15.298Z,58.20
2022-08-05T19:19:46.962Z,58.60
2022-08-05T19:22:17.327Z,59.00
2022-08-05T19:24:54.518Z,59.30
2022-08-05T19:27:24.354Z,59.60
2022-08-05T19:29:57.267Z,60.10
2022-08-05T19:32:26.180Z,60.10
2022-08-05T19:34:55.817Z,60.50
2022-08-05T19:37:29.727Z,60.90
2022-08-05T19:40:02.002Z,61.00
2022-08-05T19:42:36.073Z,61.50
2022-08-05T19:45:03.170Z,61.80
2022-08-05T19:47:33.206Z,61.50
2022-08-05T19:50:01.099Z,62.20
2022-08-05T19:52:40.543Z,61.50
2022-08-05T19:56:11.701Z,61.90
2022-08-05T19:58:10.409Z,61.30
2022-08-05T20:00:41.721Z,62.00
2022-08-05T20:03:09.320Z,62.40
2022-08-05T20:05:42.933Z,61.90
2022-08-05T20:08:10.210Z,62.40
2022-08-05T20:10:36.962Z,62.20
2022-08-05T20:13:03.745Z,62.50
2022-08-05T20:15:52.018Z,63.00
2022-08-05T20:18:32.591Z,63.60
2022-08-05T20:21:00.994Z,64.30
2022-08-05T20:23:39.378Z,65.00
2022-08-05T20:26:15.987Z,65.10
2022-08-05T20:28:44.535Z,64.60
2022-08-05T20:31:11.514Z,64.90
2022-08-05T20:33:38.274Z,65.10
2022-08-05T20:36:10.106Z,65.50
2022-08-05T20:38:38.121Z,65.70
2022-08-05T20:41:23.989Z,66.00
2022-08-05T20:43:59.010Z,66.20
2022-08-05T20:46:29.588Z,66.60
2022-08-05T20:48:56.346Z,66.80
2022-08-05T20:51:23.333Z,67.10
2022-08-05T20:53:56.215Z,67.00
2022-08-05T20:56:28.981Z,67.40
2022-08-05T20:59:04.232Z,67.40
2022-08-05T21:01:41.316Z,67.40
2022-08-05T21:04:10.664Z,67.00
2022-08-05T21:06:38.411Z,67.40
2022-08-05T21:09:14.559Z,67.60
2022-08-05T21:12:09.533Z,67.90
2022-08-05T21:14:34.664Z,67.90
2022-08-05T21:17:05.746Z,68.50
2022-08-05T21:19:47.085Z,68.70
2022-08-05T21:22:17.694Z,69.00
2022-08-05T21:24:45.388Z,68.30
2022-08-05T21:27:16.084Z,68.70
2022-08-05T21:29:43.426Z,68.70
2022-08-05T21:32:26.744Z,69.70
2022-08-05T21:35:08.871Z,70.10
2022-08-05T21:37:48.079Z,70.10
2022-08-05T21:40:20.199Z,70.50
2022-08-05T21:42:47.219Z,71.00
2022-08-05T21:45:24.258Z,71.30
2022-08-05T21:47:56.699Z,71.00
2022-08-05T21:50:25.521Z,71.80
2022-08-05T21:52:52.568Z,71.80
2022-08-05T21:56:01.701Z,72.20
2022-08-05T21:58:10.499Z,72.00
2022-08-05T22:00:38.667Z,72.40
2022-08-05T22:03:07.165Z,72.70
2022-08-05T22:05:48.965Z,72.80
2022-08-05T22:08:22.247Z,73.30
2022-08-05T22:10:51.059Z,73.50
2022-08-05T22:14:19.561Z,73.80
2022-08-05T22:16:20.394Z,73.80
2022-08-05T22:18:52.464Z,74.10
2022-08-05T22:21:19.841Z,74.40
2022-08-05T22:24:08.793Z,74.70
2022-08-05T22:26:58.113Z,75.00
2022-08-05T22:29:26.659Z,74.50
2022-08-05T22:31:59.323Z,75.00
2022-08-05T22:34:28.753Z,75.20
2022-08-05T22:36:58.461Z,75.00
2022-08-05T22:39:30.985Z,74.70
2022-08-05T22:42:11.676Z,74.50
2022-08-05T22:44:40.541Z,73.90
2022-08-05T22:47:09.441Z,74.20
2022-08-05T22:50:17.828Z,75.00
2022-08-05T22:52:30.211Z,75.70
2022-08-05T22:54:59.576Z,76.20
2022-08-05T22:57:26.782Z,76.00
2022-08-05T23:00:00.780Z,76.10
2022-08-05T23:02:30.271Z,76.40
2022-08-05T23:05:01.879Z,76.90
2022-08-05T23:07:31.886Z,77.50
2022-08-05T23:10:02.080Z,77.70
2022-08-05T23:12:33.331Z,77.60
2022-08-05T23:15:03.081Z,77.80
2022-08-05T23:17:34.143Z,77.90
2022-08-05T23:20:05.774Z,79.20
2022-08-05T23:22:37.307Z,79.50
2022-08-05T23:25:04.236Z,80.00
2022-08-05T23:27:42.442Z,80.30
2022-08-05T23:30:21.030Z,81.00
2022-08-05T23:32:54.011Z,81.80
2022-08-05T23:35:20.775Z,81.80
2022-08-05T23:37:48.272Z,81.70
2022-08-05T23:40:15.142Z,82.10
2022-08-05T23:42:42.124Z,81.80
2022-08-05T23:45:15.563Z,82.80
2022-08-05T23:47:47.687Z,82.50
2022-08-05T23:50:15.153Z,83.10
2022-08-05T23:52:50.358Z,83.20
2022-08-05T23:55:17.967Z,83.20
2022-08-05T23:57:44.709Z,83.30
